createdAt,value
2022-12-16T00:00:08.622Z,-3.00
2022-12-16T00:02:35.461Z,-3.00
2022-12-16T00:05:02.360Z,-2.90
2022-12-16T00:07:29.043Z,-2.90
2022-12-16T00:09:55.755Z,-2.90
2022-12-16T00:12:22.753Z,-2.90
2022-12-16T00:14:49.503Z,-2.90
2022-12-16T00:17:17.240Z,-2.80
2022-12-16T00:19:44.017Z,-2.80
2022-12-16T00:22:10.696Z,-2.80
2022-12-16T00:24:37.620Z,-2.80
2022-12-16T00:27:04.495Z,-2.80
2022-12-16T00:29:31.246Z,-2.80
2022-12-16T00:31:58.071Z,-2.70
2022-12-16T00:34:25.052Z,-2.70
2022-12-16T00:36:52.367Z,-2.70
2022-12-16T00:39:19.075Z,-2.70
2022-12-16T00:41:47.662Z,-2.60
2022-12-16T00:44:14.652Z,-2.60
2022-12-16T00:46:41.352Z,-2.60
2022-12-16T00:49:08.427Z,-2.60
2022-12-16T00:51:35.158Z,-2.60
2022-12-16T00:54:01.862Z,-2.60
2022-12-16T00:56:28.561Z,-2.50
2022-12-16T00:58:55.303Z,-2.50
2022-12-16T01:01:22.363Z,-2.50
2022-12-16T01:03:49.247Z,-2.50
2022-12-16T01:06:17.452Z,-2.50
2022-12-16T01:08:48.775Z,-2.50
2022-12-16T01:11:18.576Z,-2.40
2022-12-16T01:13:45.987Z,-2.40
2022-12-16T01:16:12.747Z,-2.40
2022-12-16T01:18:39.476Z,-2.40
2022-12-16T01:21:08.638Z,-2.40
2022-12-16T01:23:35.929Z,-2.40
2022-12-16T01:26:03.562Z,-2.40
2022-12-16T01:28:30.801Z,-2.40
2022-12-16T01:31:01.607Z,-2.40
2022-12-16T01:33:32.948Z,-2.40
2022-12-16T01:36:07.916Z,-2.40
2022-12-16T01:38:35.574Z,-2.30
2022-12-16T01:41:03.001Z,-2.30
2022-12-16T01:43:33.223Z,-2.30
2022-12-16T01:46:06.836Z,-2.30
2022-12-16T01:48:36.468Z,-2.30
2022-12-16T01:51:10.801Z,-2.30
2022-12-16T01:53:40.644Z,-2.30
2022-12-16T01:56:07.839Z,-2.30
2022-12-16T01:58:37.102Z,-2.20
2022-12-16T02:01:04.850Z,-2.20
2022-12-16T02:03:35.487Z,-2.20
2022-12-16T02:06:05.450Z,-2.20
2022-12-16T02:08:32.215Z,-2.20
2022-12-16T02:11:19.903Z,-2.20
2022-12-16T02:14:05.489Z,-2.20
2022-12-16T02:17:00.815Z,-2.20
2022-12-16T02:19:42.095Z,-2.20
2022-12-16T02:22:27.305Z,-2.20
2022-12-16T02:25:02.829Z,-2.20
2022-12-16T02:27:44.382Z,-2.10
2022-12-16T02:30:42.022Z,-2.20
2022-12-16T02:33:26.705Z,-2.10
2022-12-16T02:36:22.937Z,-2.10
2022-12-16T02:38:56.773Z,-2.10
2022-12-16T02:41:49.602Z,-2.10
2022-12-16T02:44:18.442Z,-2.00
2022-12-16T02:46:55.872Z,-2.10
2022-12-16T02:49:22.541Z,-2.00
2022-12-16T02:51:50.040Z,-2.00
2022-12-16T02:54:18.872Z,-2.00
2022-12-16T02:56:54.708Z,-2.00
2022-12-16T03:01:55.718Z,-2.00
2022-12-16T03:04:26.639Z,-2.00
2022-12-16T03:06:55.799Z,-2.00
2022-12-16T03:09:29.669Z,-2.10
2022-12-16T03:11:57.691Z,-2.00
2022-12-16T03:14:28.919Z,-2.10
2022-12-16T03:16:56.628Z,-2.10
2022-12-16T03:19:25.899Z,-2.10
2022-12-16T03:22:03.613Z,-2.10
2022-12-16T03:24:30.674Z,-2.10
2022-12-16T03:27:14.993Z,-2.10
2022-12-16T03:29:45.814Z,-2.10
2022-12-16T03:32:21.481Z,-2.10
2022-12-16T03:34:56.427Z,-2.10
2022-12-16T03:37:27.747Z,-2.10
2022-12-16T03:39:57.186Z,-2.10
2022-12-16T03:42:24.919Z,-2.10
2022-12-16T03:44:51.786Z,-2.10
2022-12-16T03:47:23.471Z,-2.10
2022-12-16T03:49:50.817Z,-2.00
2022-12-16T03:52:17.534Z,-2.10
2022-12-16T03:54:44.235Z,-2.10
2022-12-16T03:57:15.322Z,-2.10
2022-12-16T03:59:43.297Z,-2.10
2022-12-16T04:02:10.121Z,-2.00
2022-12-16T04:04:38.273Z,-2.10
2022-12-16T04:07:20.244Z,-2.10
2022-12-16T04:09:48.142Z,-2.10
2022-12-16T04:12:33.604Z,-2.00
2022-12-16T04:15:18.700Z,-2.00
2022-12-16T04:18:05.600Z,-2.00
2022-12-16T04:20:55.462Z,-2.00
2022-12-16T04:23:42.960Z,-2.00
2022-12-16T04:26:09.936Z,-2.00
2022-12-16T04:28:36.887Z,-2.00
2022-12-16T04:31:03.982Z,-2.00
2022-12-16T04:33:49.407Z,-2.00
2022-12-16T04:36:34.906Z,-2.00
2022-12-16T04:39:20.360Z,-2.00
2022-12-16T04:42:05.917Z,-2.00
2022-12-16T04:44:51.080Z,-2.00
2022-12-16T04:47:36.337Z,-2.00
2022-12-16T04:50:21.779Z,-2.00
2022-12-16T04:53:10.224Z,-2.00
2022-12-16T04:56:00.591Z,-2.00
2022-12-16T04:58:49.198Z,-2.00
2022-12-16T05:01:34.692Z,-2.00
2022-12-16T05:04:19.838Z,-2.00
2022-12-16T05:07:05.337Z,-2.00
2022-12-16T05:09:50.820Z,-2.00
2022-12-16T05:12:36.248Z,-1.90
2022-12-16T05:15:21.708Z,-1.90
2022-12-16T05:18:07.061Z,-1.90
2022-12-16T05:20:52.690Z,-1.90
2022-12-16T05:23:38.088Z,-1.90
2022-12-16T05:26:23.504Z,-1.90
2022-12-16T05:29:19.644Z,-1.90
2022-12-16T05:32:05.057Z,-1.90
2022-12-16T05:34:50.430Z,-1.90
2022-12-16T05:37:35.961Z,-1.90
2022-12-16T05:40:21.321Z,-1.90
2022-12-16T05:43:08.895Z,-1.90
2022-12-16T05:45:56.439Z,-2.00
2022-12-16T05:48:47.458Z,-2.00
2022-12-16T05:51:33.123Z,-1.90
2022-12-16T05:54:18.504Z,-1.90
2022-12-16T05:57:03.730Z,-2.00
2022-12-16T06:00:09.040Z,-2.00
2022-12-16T06:02:54.342Z,-2.00
2022-12-16T06:05:39.763Z,-1.90
2022-12-16T06:08:25.120Z,-1.90
2022-12-16T06:11:10.744Z,-1.90
2022-12-16T06:13:56.302Z,-1.90
2022-12-16T06:16:41.872Z,-1.90
2022-12-16T06:19:27.394Z,-2.00
2022-12-16T06:22:12.738Z,-2.00
2022-12-16T06:24:58.241Z,-2.00
2022-12-16T06:27:43.550Z,-2.00
2022-12-16T06:30:29.399Z,-2.00
2022-12-16T06:33:14.972Z,-2.00
2022-12-16T06:36:00.333Z,-2.00
2022-12-16T06:38:45.944Z,-2.00
2022-12-16T06:41:48.137Z,-2.00
2022-12-16T06:44:33.437Z,-2.00
2022-12-16T06:47:18.976Z,-2.10
2022-12-16T06:50:04.419Z,-2.10
2022-12-16T06:52:49.938Z,-2.10
2022-12-16T06:55:35.505Z,-2.10
2022-12-16T06:58:21.211Z,-2.10
2022-12-16T07:01:06.578Z,-2.00
2022-12-16T07:03:51.892Z,-2.10
2022-12-16T07:06:37.371Z,-2.10
2022-12-16T07:09:22.856Z,-2.10
2022-12-16T07:12:08.492Z,-2.00
2022-12-16T07:14:53.805Z,-2.10
2022-12-16T07:17:39.337Z,-2.00
2022-12-16T07:20:25.462Z,-2.10
2022-12-16T07:23:17.734Z,-2.00
2022-12-16T07:26:05.187Z,-2.00
2022-12-16T07:28:50.660Z,-2.00
2022-12-16T07:31:36.245Z,-2.00
2022-12-16T07:34:21.535Z,-2.00
2022-12-16T07:37:06.978Z,-2.00
2022-12-16T07:39:55.216Z,-2.00
2022-12-16T07:42:41.606Z,-2.00
2022-12-16T07:45:27.525Z,-2.00
2022-12-16T07:48:13.312Z,-1.90
2022-12-16T07:50:58.680Z,-1.90
2022-12-16T07:53:44.133Z,-1.90
2022-12-16T07:56:29.565Z,-1.80
2022-12-16T07:59:15.178Z,-1.80
2022-12-16T08:02:00.864Z,-1.80
2022-12-16T08:04:46.149Z,-1.80
2022-12-16T08:07:31.723Z,-1.80
2022-12-16T08:10:17.281Z,-1.70
2022-12-16T08:13:03.037Z,-1.70
2022-12-16T08:15:48.394Z,-1.70
2022-12-16T08:18:35.338Z,-1.70
2022-12-16T08:21:20.878Z,-1.70
2022-12-16T08:24:06.178Z,-1.70
2022-12-16T08:26:51.783Z,-1.70
2022-12-16T08:29:45.707Z,-1.60
2022-12-16T08:32:32.625Z,-1.60
2022-12-16T08:35:18.053Z,-1.60
2022-12-16T08:38:05.480Z,-1.60
2022-12-16T08:40:52.965Z,-1.60
2022-12-16T08:43:40.805Z,-1.60
2022-12-16T08:46:26.232Z,-1.60
2022-12-16T08:49:11.692Z,-1.50
2022-12-16T08:51:57.126Z,-1.50
2022-12-16T08:54:42.708Z,-1.50
2022-12-16T08:57:28.093Z,-1.50
2022-12-16T09:02:53.939Z,-1.40
2022-12-16T09:05:41.136Z,-1.50
2022-12-16T09:08:26.589Z,-1.40
2022-12-16T09:11:12.132Z,-1.40
2022-12-16T09:13:57.370Z,-1.30
2022-12-16T09:16:42.944Z,-1.20
2022-12-16T09:19:29.421Z,-1.10
2022-12-16T09:22:14.888Z,-1.10
2022-12-16T09:25:00.252Z,-0.90
2022-12-16T09:27:46.901Z,-0.80
2022-12-16T09:30:32.256Z,-0.60
2022-12-16T09:33:19.647Z,-0.40
2022-12-16T09:36:05.046Z,-0.30
2022-12-16T09:38:50.458Z,-0.30
2022-12-16T09:41:45.163Z,-0.10
2022-12-16T09:44:48.798Z,0.00
2022-12-16T09:47:41.622Z,0.10
2022-12-16T09:50:41.807Z,0.20
2022-12-16T09:53:33.341Z,0.20
2022-12-16T09:56:21.875Z,0.20
2022-12-16T09:59:21.463Z,0.20
2022-12-16T10:02:08.417Z,0.20
2022-12-16T10:04:54.153Z,0.40
2022-12-16T10:07:42.249Z,0.40
2022-12-16T10:10:44.560Z,0.50
2022-12-16T10:13:41.766Z,0.40
2022-12-16T10:16:42.299Z,0.30
2022-12-16T10:19:57.577Z,0.20
2022-12-16T10:23:29.183Z,0.30
2022-12-16T10:26:29.351Z,0.40
2022-12-16T10:29:31.410Z,0.20
2022-12-16T10:32:16.949Z,0.30
2022-12-16T10:35:02.911Z,0.50
2022-12-16T10:37:55.691Z,0.60
2022-12-16T10:40:45.582Z,0.80
2022-12-16T10:43:43.916Z,0.90
2022-12-16T10:46:37.472Z,1.00
2022-12-16T10:49:22.626Z,1.00
2022-12-16T10:52:09.214Z,1.00
2022-12-16T10:55:01.198Z,0.80
2022-12-16T10:58:13.277Z,0.70
2022-12-16T11:01:05.203Z,0.70
2022-12-16T11:03:54.526Z,0.90
2022-12-16T11:06:54.002Z,0.90
2022-12-16T11:09:50.107Z,0.90
2022-12-16T11:12:39.166Z,0.90
2022-12-16T11:15:53.328Z,0.70
2022-12-16T11:18:41.653Z,0.70
2022-12-16T11:21:40.402Z,0.80
2022-12-16T11:24:28.454Z,0.60
2022-12-16T11:27:16.049Z,0.60
2022-12-16T11:30:16.115Z,0.60
2022-12-16T11:33:13.997Z,0.70
2022-12-16T11:36:12.234Z,0.50
2022-12-16T11:39:03.271Z,0.60
2022-12-16T11:41:53.946Z,0.60
2022-12-16T11:45:08.493Z,0.60
2022-12-16T11:48:10.992Z,0.40
2022-12-16T11:51:09.341Z,0.40
2022-12-16T11:54:08.433Z,0.50
2022-12-16T11:56:57.724Z,0.50
2022-12-16T11:59:49.907Z,0.60
2022-12-16T12:02:57.251Z,0.50
2022-12-16T12:06:09.028Z,0.50
2022-12-16T12:09:08.889Z,0.50
2022-12-16T12:11:57.284Z,0.40
2022-12-16T12:14:58.149Z,0.30
2022-12-16T12:17:59.558Z,0.40
2022-12-16T12:21:19.720Z,0.60
2022-12-16T12:24:18.930Z,0.60
2022-12-16T12:27:19.939Z,0.50
2022-12-16T12:30:20.748Z,0.60
2022-12-16T12:33:40.465Z,0.70
2022-12-16T12:36:50.532Z,0.70
2022-12-16T12:40:01.725Z,0.90
2022-12-16T12:43:03.781Z,0.90
2022-12-16T12:46:36.591Z,0.90
2022-12-16T12:49:54.062Z,0.80
2022-12-16T12:53:09.341Z,0.90
2022-12-16T12:56:06.441Z,0.70
2022-12-16T12:58:54.585Z,0.80
2022-12-16T13:01:45.883Z,0.80
2022-12-16T13:04:35.578Z,0.80
2022-12-16T13:07:22.163Z,0.70
2022-12-16T13:10:31.033Z,0.70
2022-12-16T13:13:43.958Z,0.70
2022-12-16T13:16:31.521Z,0.70
2022-12-16T13:19:49.203Z,0.70
2022-12-16T13:22:54.211Z,0.70
2022-12-16T13:25:55.349Z,0.80
2022-12-16T13:28:50.471Z,0.90
2022-12-16T13:31:36.462Z,0.80
2022-12-16T13:34:33.990Z,0.70
2022-12-16T13:37:26.870Z,0.70
2022-12-16T13:40:21.029Z,0.70
2022-12-16T13:43:07.945Z,0.60
2022-12-16T13:45:59.366Z,0.50
2022-12-16T13:48:59.395Z,0.40
2022-12-16T13:51:56.653Z,0.20
2022-12-16T13:55:11.672Z,0.00
2022-12-16T13:58:01.167Z,-0.20
2022-12-16T14:00:47.519Z,-0.30
2022-12-16T14:03:40.938Z,-0.30
2022-12-16T14:06:43.273Z,-0.40
2022-12-16T14:09:54.877Z,-0.40
2022-12-16T14:12:41.624Z,-0.50
2022-12-16T14:15:43.107Z,-0.60
2022-12-16T14:18:47.671Z,-0.70
2022-12-16T14:21:38.520Z,-0.80
2022-12-16T14:24:35.668Z,-0.90
2022-12-16T14:27:29.738Z,-1.00
2022-12-16T14:30:15.051Z,-1.00
2022-12-16T14:33:00.583Z,-1.10
2022-12-16T14:35:47.145Z,-1.10
2022-12-16T14:38:47.413Z,-0.80
2022-12-16T14:41:48.489Z,-1.40
2022-12-16T14:44:37.189Z,-1.50
2022-12-16T14:47:22.681Z,-1.70
2022-12-16T14:50:10.668Z,-1.80
2022-12-16T14:52:56.136Z,-2.00
2022-12-16T14:55:53.220Z,-2.10
2022-12-16T14:58:41.784Z,-2.30
2022-12-16T15:01:39.524Z,-2.40
2022-12-16T15:04:40.320Z,-2.60
2022-12-16T15:07:32.092Z,-2.80
2022-12-16T15:10:18.726Z,-2.90
2022-12-16T15:13:07.787Z,-3.00
2022-12-16T15:16:03.254Z,-3.20
2022-12-16T15:18:58.729Z,-3.30
2022-12-16T15:21:44.209Z,-3.30
2022-12-16T15:24:36.518Z,-3.50
2022-12-16T15:27:39.685Z,-3.60
2022-12-16T15:30:50.015Z,-3.70
2022-12-16T15:33:37.349Z,-3.90
2022-12-16T15:36:24.379Z,-3.80
2022-12-16T15:39:09.952Z,-3.80
2022-12-16T15:41:56.175Z,-3.90
2022-12-16T15:44:44.664Z,-3.90
2022-12-16T15:47:51.978Z,-4.10
2022-12-16T15:50:59.974Z,-4.20
2022-12-16T15:53:49.505Z,-4.30
2022-12-16T15:57:00.338Z,-4.40
2022-12-16T15:59:52.023Z,-4.50
2022-12-16T16:02:46.669Z,-4.50
2022-12-16T16:05:33.164Z,-4.60
2022-12-16T16:08:18.661Z,-4.70
2022-12-16T16:11:04.207Z,-4.80
2022-12-16T16:13:49.733Z,-4.80
2022-12-16T16:16:35.854Z,-4.80
2022-12-16T16:19:21.078Z,-4.90
2022-12-16T16:22:06.610Z,-5.00
2022-12-16T16:24:51.982Z,-5.00
2022-12-16T16:27:37.933Z,-5.00
2022-12-16T16:30:25.474Z,-5.10
2022-12-16T16:33:11.084Z,-5.10
2022-12-16T16:35:56.525Z,-5.10
2022-12-16T16:38:41.828Z,-5.20
2022-12-16T16:41:33.454Z,-5.20
2022-12-16T16:44:19.949Z,-5.20
2022-12-16T16:47:06.035Z,-5.20
2022-12-16T16:49:59.873Z,-5.30
2022-12-16T16:52:47.228Z,-5.30
2022-12-16T16:55:37.603Z,-5.30
2022-12-16T16:58:31.648Z,-5.30
2022-12-16T17:01:17.103Z,-5.30
2022-12-16T17:04:02.730Z,-5.30
2022-12-16T17:06:48.388Z,-5.30
2022-12-16T17:09:33.496Z,-5.30
2022-12-16T17:12:18.974Z,-5.20
2022-12-16T17:15:04.469Z,-5.20
2022-12-16T17:17:49.986Z,-5.20
2022-12-16T17:20:36.211Z,-5.20
2022-12-16T17:23:23.176Z,-5.20
2022-12-16T17:26:08.608Z,-5.20
2022-12-16T17:28:53.984Z,-5.30
2022-12-16T17:31:39.393Z,-5.40
2022-12-16T17:34:24.542Z,-5.40
2022-12-16T17:37:09.922Z,-5.40
2022-12-16T17:39:55.341Z,-5.40
2022-12-16T17:42:46.257Z,-5.50
2022-12-16T17:45:32.041Z,-5.50
2022-12-16T17:48:17.639Z,-5.60
2022-12-16T17:51:04.363Z,-5.60
2022-12-16T17:53:52.517Z,-5.70
2022-12-16T17:56:41.031Z,-5.80
2022-12-16T17:59:28.184Z,-5.80
2022-12-16T18:02:13.861Z,-5.90
2022-12-16T18:04:59.312Z,-5.90
2022-12-16T18:07:44.634Z,-5.90
2022-12-16T18:10:30.158Z,-5.90
2022-12-16T18:13:15.745Z,-6.00
2022-12-16T18:16:00.846Z,-6.00
2022-12-16T18:18:47.173Z,-6.00
2022-12-16T18:21:33.187Z,-6.00
2022-12-16T18:24:18.635Z,-6.00
2022-12-16T18:27:04.232Z,-6.10
2022-12-16T18:29:49.618Z,-6.10
2022-12-16T18:32:35.582Z,-6.20
2022-12-16T18:35:22.569Z,-6.20
2022-12-16T18:38:11.010Z,-6.20
2022-12-16T18:40:58.674Z,-6.20
2022-12-16T18:43:44.270Z,-6.20
2022-12-16T18:46:29.788Z,-6.20
2022-12-16T18:49:15.200Z,-6.20
2022-12-16T18:52:00.542Z,-6.30
2022-12-16T18:54:45.794Z,-6.30
2022-12-16T18:57:36.400Z,-6.40
2022-12-16T19:00:25.160Z,-6.00
2022-12-16T19:03:10.595Z,-6.60
2022-12-16T19:05:55.990Z,-6.70
2022-12-16T19:08:41.785Z,-6.80
2022-12-16T19:11:28.155Z,-6.80
2022-12-16T19:14:13.579Z,-6.80
2022-12-16T19:16:59.095Z,-6.80
2022-12-16T19:19:44.529Z,-6.80
2022-12-16T19:22:29.963Z,-6.80
2022-12-16T19:25:15.354Z,-6.70
2022-12-16T19:28:00.849Z,-6.70
2022-12-16T19:30:46.321Z,-6.70
2022-12-16T19:33:33.207Z,-6.60
2022-12-16T19:36:18.882Z,-6.60
2022-12-16T19:39:04.204Z,-6.60
2022-12-16T19:41:50.240Z,-6.60
2022-12-16T19:44:35.773Z,-6.60
2022-12-16T19:47:20.950Z,-6.60
2022-12-16T19:50:26.301Z,-6.60
2022-12-16T19:53:12.266Z,-6.60
2022-12-16T19:55:57.330Z,-6.60
2022-12-16T19:58:42.981Z,-6.60
2022-12-16T20:01:28.576Z,-6.60
2022-12-16T20:04:14.014Z,-6.50
2022-12-16T20:06:59.623Z,-6.50
2022-12-16T20:09:45.082Z,-6.40
2022-12-16T20:12:30.687Z,-6.40
2022-12-16T20:15:16.169Z,-6.30
2022-12-16T20:18:01.649Z,-6.30
2022-12-16T20:20:47.241Z,-6.20
2022-12-16T20:23:32.657Z,-6.20
2022-12-16T20:26:20.210Z,-6.10
2022-12-16T20:29:06.767Z,-6.00
2022-12-16T20:31:52.516Z,-6.00
2022-12-16T20:34:41.426Z,-5.90
2022-12-16T20:37:27.113Z,-5.80
2022-12-16T20:40:12.351Z,-5.80
2022-12-16T20:42:57.901Z,-5.80
2022-12-16T20:45:43.293Z,-5.70
2022-12-16T20:48:32.570Z,-5.70
2022-12-16T20:54:28.442Z,-5.70
2022-12-16T20:57:13.825Z,-5.70
2022-12-16T20:59:59.430Z,-5.50
2022-12-16T21:02:44.838Z,-5.60
2022-12-16T21:05:30.397Z,-5.70
2022-12-16T21:08:15.770Z,-5.70
2022-12-16T21:11:01.161Z,-5.80
2022-12-16T21:13:46.920Z,-5.80
2022-12-16T21:16:32.272Z,-5.90
2022-12-16T21:19:17.727Z,-6.00
2022-12-16T21:22:03.202Z,-6.10
2022-12-16T21:24:48.737Z,-6.30
2022-12-16T21:27:34.214Z,-6.40
2022-12-16T21:30:19.776Z,-6.50
2022-12-16T21:33:05.115Z,-6.60
2022-12-16T21:35:50.559Z,-6.70
2022-12-16T21:38:36.898Z,-6.70
2022-12-16T21:41:22.405Z,-6.80
2022-12-16T21:44:09.669Z,-6.80
2022-12-16T21:46:55.262Z,-6.90
2022-12-16T21:49:40.691Z,-7.10
2022-12-16T21:52:26.294Z,-7.20
2022-12-16T21:55:11.743Z,-7.20
2022-12-16T21:57:57.297Z,-7.20
2022-12-16T22:00:42.608Z,-7.20
2022-12-16T22:03:27.950Z,-7.30
2022-12-16T22:06:17.552Z,-7.30
2022-12-16T22:09:03.057Z,-7.50
2022-12-16T22:11:48.491Z,-7.70
2022-12-16T22:14:33.974Z,-7.80
2022-12-16T22:17:19.197Z,-7.80
2022-12-16T22:20:04.722Z,-7.80
2022-12-16T22:22:50.211Z,-7.80
2022-12-16T22:25:35.710Z,-7.80
2022-12-16T22:28:21.080Z,-7.80
2022-12-16T22:31:15.793Z,-7.80
2022-12-16T22:34:01.840Z,-7.80
2022-12-16T22:36:47.455Z,-7.90
2022-12-16T22:39:32.914Z,-7.90
2022-12-16T22:42:18.427Z,-7.90
2022-12-16T22:45:03.940Z,-7.90
2022-12-16T22:47:49.966Z,-8.00
2022-12-16T22:50:35.607Z,-8.00
2022-12-16T22:53:20.913Z,-8.10
2022-12-16T22:56:13.535Z,-8.20
2022-12-16T22:58:59.363Z,-8.20
2022-12-16T23:01:44.892Z,-8.20
2022-12-16T23:04:30.334Z,-8.30
2022-12-16T23:07:15.749Z,-8.30
2022-12-16T23:10:01.140Z,-8.40
2022-12-16T23:12:46.511Z,-8.50
2022-12-16T23:15:32.543Z,-8.50
2022-12-16T23:18:18.422Z,-8.50
2022-12-16T23:21:07.952Z,-8.50
2022-12-16T23:23:53.563Z,-8.50
2022-12-16T23:26:42.160Z,-8.50
2022-12-16T23:29:27.608Z,-8.50
2022-12-16T23:32:13.252Z,-8.60
2022-12-16T23:34:58.662Z,-8.70
2022-12-16T23:37:44.074Z,-8.70
2022-12-16T23:40:29.479Z,-8.70
2022-12-16T23:43:14.816Z,-8.70
2022-12-16T23:46:01.957Z,-8.80
2022-12-16T23:48:47.115Z,-8.80
2022-12-16T23:51:32.656Z,-8.90
2022-12-16T23:54:18.116Z,-8.90
2022-12-16T23:57:03.485Z,-9.00
2022-12-16T23:59:49.007Z,-9.00
